sensor_id;sensor_type;location;lat;lon;timestamp;P1;durP1;ratioP1;P2;durP2;ratioP2
23046;SDS011;11691;51.462;6.902;2022-12-18T00:01:24;9.10;;;4.33;;
23046;SDS011;11691;51.462;6.902;2022-12-18T00:03:51;8.07;;;4.07;;
23046;SDS011;11691;51.462;6.902;2022-12-18T00:06:18;8.13;;;4.50;;
23046;SDS011;11691;51.462;6.902;2022-12-18T00:08:45;11.13;;;4.83;;
23046;SDS011;11691;51.462;6.902;2022-12-18T00:11:12;9.33;;;4.60;;
23046;SDS011;11691;51.462;6.902;2022-12-18T00:13:44;9.07;;;4.33;;
23046;SDS011;11691;51.462;6.902;2022-12-18T00:16:11;9.93;;;4.53;;
23046;SDS011;11691;51.462;6.902;2022-12-18T00:18:40;8.67;;;4.50;;
23046;SDS011;11691;51.462;6.902;2022-12-18T00:21:07;8.73;;;4.67;;
23046;SDS011;11691;51.462;6.902;2022-12-18T00:23:34;9.80;;;4.70;;
23046;SDS011;11691;51.462;6.902;2022-12-18T00:26:04;11.77;;;5.67;;
23046;SDS011;11691;51.462;6.902;2022-12-18T00:28:31;10.47;;;4.93;;
23046;SDS011;11691;51.462;6.902;2022-12-18T00:31:04;10.83;;;4.67;;
23046;SDS011;11691;51.462;6.902;2022-12-18T00:33:31;9.07;;;4.73;;
23046;SDS011;11691;51.462;6.902;2022-12-18T00:36:06;11.47;;;4.83;;
23046;SDS011;11691;51.462;6.902;2022-12-18T00:38:33;12.97;;;5.20;;
23046;SDS011;11691;51.462;6.902;2022-12-18T00:40:59;9.27;;;4.67;;
23046;SDS011;11691;51.462;6.902;2022-12-18T00:43:25;8.60;;;4.93;;
23046;SDS011;11691;51.462;6.902;2022-12-18T00:45:52;11.90;;;5.20;;
23046;SDS011;11691;51.462;6.902;2022-12-18T00:48:18;9.67;;;5.13;;
23046;SDS011;11691;51.462;6.902;2022-12-18T00:50:44;7.97;;;4.37;;
23046;SDS011;11691;51.462;6.902;2022-12-18T00:53:10;9.17;;;4.37;;
23046;SDS011;11691;51.462;6.902;2022-12-18T00:55:37;12.13;;;4.97;;
23046;SDS011;11691;51.462;6.902;2022-12-18T00:58:03;10.40;;;5.23;;
23046;SDS011;11691;51.462;6.902;2022-12-18T01:00:29;9.43;;;4.77;;
23046;SDS011;11691;51.462;6.902;2022-12-18T01:02:55;8.90;;;4.50;;
23046;SDS011;11691;51.462;6.902;2022-12-18T01:05:21;7.17;;;4.40;;
23046;SDS011;11691;51.462;6.902;2022-12-18T01:07:47;10.07;;;4.90;;
23046;SDS011;11691;51.462;6.902;2022-12-18T01:10:13;10.00;;;5.03;;
23046;SDS011;11691;51.462;6.902;2022-12-18T01:12:39;10.50;;;4.93;;
23046;SDS011;11691;51.462;6.902;2022-12-18T01:15:06;8.63;;;4.33;;
23046;SDS011;11691;51.462;6.902;2022-12-18T01:17:32;8.07;;;4.70;;
23046;SDS011;11691;51.462;6.902;2022-12-18T01:19:58;8.93;;;4.27;;
23046;SDS011;11691;51.462;6.902;2022-12-18T01:22:24;7.10;;;4.23;;
23046;SDS011;11691;51.462;6.902;2022-12-18T01:24:50;9.17;;;4.73;;
23046;SDS011;11691;51.462;6.902;2022-12-18T01:27:16;7.53;;;4.30;;
23046;SDS011;11691;51.462;6.902;2022-12-18T01:29:42;9.83;;;4.57;;
23046;SDS011;11691;51.462;6.902;2022-12-18T01:32:08;8.50;;;4.30;;
23046;SDS011;11691;51.462;6.902;2022-12-18T01:34:37;9.53;;;4.40;;
23046;SDS011;11691;51.462;6.902;2022-12-18T01:37:04;7.30;;;4.00;;
23046;SDS011;11691;51.462;6.902;2022-12-18T01:39:30;7.90;;;4.23;;
23046;SDS011;11691;51.462;6.902;2022-12-18T01:41:57;8.67;;;4.83;;
23046;SDS011;11691;51.462;6.902;2022-12-18T01:47:36;8.67;;;3.90;;
23046;SDS011;11691;51.462;6.902;2022-12-18T01:50:01;8.10;;;4.10;;
23046;SDS011;11691;51.462;6.902;2022-12-18T01:52:31;9.23;;;4.40;;
23046;SDS011;11691;51.462;6.902;2022-12-18T01:54:58;7.40;;;4.13;;
23046;SDS011;11691;51.462;6.902;2022-12-18T01:57:25;6.93;;;3.73;;
23046;SDS011;11691;51.462;6.902;2022-12-18T01:59:52;7.77;;;4.30;;
23046;SDS011;11691;51.462;6.902;2022-12-18T02:02:21;7.80;;;4.00;;
23046;SDS011;11691;51.462;6.902;2022-12-18T02:04:47;8.07;;;4.30;;
23046;SDS011;11691;51.462;6.902;2022-12-18T02:07:20;9.70;;;4.37;;
23046;SDS011;11691;51.462;6.902;2022-12-18T02:10:15;9.10;;;4.50;;
23046;SDS011;11691;51.462;6.902;2022-12-18T02:17:46;10.90;;;4.70;;
23046;SDS011;11691;51.462;6.902;2022-12-18T02:20:16;8.30;;;4.70;;
23046;SDS011;11691;51.462;6.902;2022-12-18T02:22:49;10.00;;;4.87;;
23046;SDS011;11691;51.462;6.902;2022-12-18T02:28:07;8.97;;;5.30;;
23046;SDS011;11691;51.462;6.902;2022-12-18T02:30:34;9.70;;;5.07;;
23046;SDS011;11691;51.462;6.902;2022-12-18T02:33:02;9.67;;;5.07;;
23046;SDS011;11691;51.462;6.902;2022-12-18T02:35:30;10.07;;;5.47;;
23046;SDS011;11691;51.462;6.902;2022-12-18T02:37:56;7.90;;;4.80;;
23046;SDS011;11691;51.462;6.902;2022-12-18T02:40:24;9.03;;;4.70;;
23046;SDS011;11691;51.462;6.902;2022-12-18T02:42:52;8.27;;;4.40;;
23046;SDS011;11691;51.462;6.902;2022-12-18T02:45:18;7.63;;;4.53;;
23046;SDS011;11691;51.462;6.902;2022-12-18T02:47:46;8.60;;;4.60;;
23046;SDS011;11691;51.462;6.902;2022-12-18T02:50:22;7.97;;;4.67;;
23046;SDS011;11691;51.462;6.902;2022-12-18T02:53:24;8.27;;;4.73;;
23046;SDS011;11691;51.462;6.902;2022-12-18T03:01:07;9.57;;;5.10;;
23046;SDS011;11691;51.462;6.902;2022-12-18T03:03:39;8.93;;;4.60;;
23046;SDS011;11691;51.462;6.902;2022-12-18T03:06:08;8.50;;;4.60;;
23046;SDS011;11691;51.462;6.902;2022-12-18T03:08:41;8.43;;;4.40;;
23046;SDS011;11691;51.462;6.902;2022-12-18T03:11:08;7.97;;;4.10;;
23046;SDS011;11691;51.462;6.902;2022-12-18T03:13:51;8.67;;;4.70;;
23046;SDS011;11691;51.462;6.902;2022-12-18T03:16:20;8.63;;;4.37;;
23046;SDS011;11691;51.462;6.902;2022-12-18T03:18:52;7.43;;;4.03;;
23046;SDS011;11691;51.462;6.902;2022-12-18T03:21:20;8.47;;;4.77;;
23046;SDS011;11691;51.462;6.902;2022-12-18T03:23:51;9.10;;;4.43;;
23046;SDS011;11691;51.462;6.902;2022-12-18T03:26:21;8.37;;;4.50;;
23046;SDS011;11691;51.462;6.902;2022-12-18T03:28:51;12.23;;;4.53;;
23046;SDS011;11691;51.462;6.902;2022-12-18T03:31:19;8.90;;;4.50;;
23046;SDS011;11691;51.462;6.902;2022-12-18T03:33:51;7.87;;;4.63;;
23046;SDS011;11691;51.462;6.902;2022-12-18T03:36:17;7.87;;;4.40;;
23046;SDS011;11691;51.462;6.902;2022-12-18T03:38:43;9.93;;;5.13;;
23046;SDS011;11691;51.462;6.902;2022-12-18T03:43:52;8.13;;;4.63;;
23046;SDS011;11691;51.462;6.902;2022-12-18T03:46:33;8.83;;;4.67;;
23046;SDS011;11691;51.462;6.902;2022-12-18T03:52:06;8.53;;;5.13;;
23046;SDS011;11691;51.462;6.902;2022-12-18T03:54:33;8.27;;;4.50;;
23046;SDS011;11691;51.462;6.902;2022-12-18T03:57:03;10.20;;;4.77;;
23046;SDS011;11691;51.462;6.902;2022-12-18T03:59:34;8.03;;;4.27;;
23046;SDS011;11691;51.462;6.902;2022-12-18T04:02:02;9.87;;;4.77;;
23046;SDS011;11691;51.462;6.902;2022-12-18T04:04:30;8.53;;;3.97;;
23046;SDS011;11691;51.462;6.902;2022-12-18T04:06:56;7.67;;;4.17;;
23046;SDS011;11691;51.462;6.902;2022-12-18T04:09:23;8.87;;;4.07;;
23046;SDS011;11691;51.462;6.902;2022-12-18T04:11:49;7.77;;;4.30;;
23046;SDS011;11691;51.462;6.902;2022-12-18T04:14:17;8.97;;;4.40;;
23046;SDS011;11691;51.462;6.902;2022-12-18T04:16:43;7.30;;;3.90;;
23046;SDS011;11691;51.462;6.902;2022-12-18T04:19:09;8.60;;;4.77;;
23046;SDS011;11691;51.462;6.902;2022-12-18T04:21:35;6.70;;;4.13;;
23046;SDS011;11691;51.462;6.902;2022-12-18T04:24:01;7.80;;;4.23;;
23046;SDS011;11691;51.462;6.902;2022-12-18T04:26:27;6.87;;;3.80;;
23046;SDS011;11691;51.462;6.902;2022-12-18T04:28:53;7.67;;;3.93;;
23046;SDS011;11691;51.462;6.902;2022-12-18T04:31:19;6.83;;;3.80;;
23046;SDS011;11691;51.462;6.902;2022-12-18T04:33:45;9.40;;;4.30;;
23046;SDS011;11691;51.462;6.902;2022-12-18T04:36:11;8.50;;;4.33;;
23046;SDS011;11691;51.462;6.902;2022-12-18T04:38:37;8.23;;;4.53;;
23046;SDS011;11691;51.462;6.902;2022-12-18T04:41:03;8.80;;;4.37;;
23046;SDS011;11691;51.462;6.902;2022-12-18T04:43:29;6.20;;;4.00;;
23046;SDS011;11691;51.462;6.902;2022-12-18T04:46:02;8.70;;;4.60;;
23046;SDS011;11691;51.462;6.902;2022-12-18T04:48:32;9.77;;;5.23;;
23046;SDS011;11691;51.462;6.902;2022-12-18T04:50:58;13.03;;;6.33;;
23046;SDS011;11691;51.462;6.902;2022-12-18T04:53:24;17.50;;;9.00;;
23046;SDS011;11691;51.462;6.902;2022-12-18T04:55:50;17.00;;;9.63;;
23046;SDS011;11691;51.462;6.902;2022-12-18T04:58:16;20.83;;;10.03;;
23046;SDS011;11691;51.462;6.902;2022-12-18T05:00:42;21.63;;;11.23;;
23046;SDS011;11691;51.462;6.902;2022-12-18T05:03:08;24.13;;;11.70;;
23046;SDS011;11691;51.462;6.902;2022-12-18T05:05:35;25.00;;;12.10;;
23046;SDS011;11691;51.462;6.902;2022-12-18T05:08:01;21.50;;;11.57;;
23046;SDS011;11691;51.462;6.902;2022-12-18T05:10:27;20.57;;;10.43;;
23046;SDS011;11691;51.462;6.902;2022-12-18T05:12:53;24.03;;;11.33;;
23046;SDS011;11691;51.462;6.902;2022-12-18T05:15:28;21.90;;;11.30;;
23046;SDS011;11691;51.462;6.902;2022-12-18T05:17:56;26.47;;;11.73;;
23046;SDS011;11691;51.462;6.902;2022-12-18T05:20:22;22.50;;;11.13;;
23046;SDS011;11691;51.462;6.902;2022-12-18T05:22:48;21.77;;;11.63;;
23046;SDS011;11691;51.462;6.902;2022-12-18T05:25:15;24.23;;;12.00;;
23046;SDS011;11691;51.462;6.902;2022-12-18T05:27:41;19.30;;;10.20;;
23046;SDS011;11691;51.462;6.902;2022-12-18T05:30:07;21.77;;;11.17;;
23046;SDS011;11691;51.462;6.902;2022-12-18T05:32:33;23.03;;;11.83;;
23046;SDS011;11691;51.462;6.902;2022-12-18T05:34:59;21.93;;;11.00;;
23046;SDS011;11691;51.462;6.902;2022-12-18T05:37:25;22.50;;;11.63;;
23046;SDS011;11691;51.462;6.902;2022-12-18T05:39:51;25.13;;;11.43;;
23046;SDS011;11691;51.462;6.902;2022-12-18T05:42:17;23.70;;;11.40;;
23046;SDS011;11691;51.462;6.902;2022-12-18T05:44:43;23.60;;;11.87;;
23046;SDS011;11691;51.462;6.902;2022-12-18T05:47:09;23.33;;;11.20;;
23046;SDS011;11691;51.462;6.902;2022-12-18T05:49:35;21.30;;;11.73;;
23046;SDS011;11691;51.462;6.902;2022-12-18T05:52:01;20.57;;;10.97;;
23046;SDS011;11691;51.462;6.902;2022-12-18T05:54:28;22.60;;;11.23;;
23046;SDS011;11691;51.462;6.902;2022-12-18T05:56:54;21.10;;;11.23;;
23046;SDS011;11691;51.462;6.902;2022-12-18T05:59:20;23.50;;;11.30;;
23046;SDS011;11691;51.462;6.902;2022-12-18T06:01:46;21.00;;;10.37;;
23046;SDS011;11691;51.462;6.902;2022-12-18T06:04:12;22.40;;;12.07;;
23046;SDS011;11691;51.462;6.902;2022-12-18T06:06:38;23.13;;;11.60;;
23046;SDS011;11691;51.462;6.902;2022-12-18T06:09:04;18.67;;;10.23;;
23046;SDS011;11691;51.462;6.902;2022-12-18T06:11:35;19.60;;;10.77;;
23046;SDS011;11691;51.462;6.902;2022-12-18T06:14:01;19.60;;;10.73;;
23046;SDS011;11691;51.462;6.902;2022-12-18T06:16:29;19.97;;;10.37;;
23046;SDS011;11691;51.462;6.902;2022-12-18T06:18:58;25.63;;;11.27;;
23046;SDS011;11691;51.462;6.902;2022-12-18T06:21:25;20.93;;;10.53;;
23046;SDS011;11691;51.462;6.902;2022-12-18T06:23:51;24.67;;;11.77;;
23046;SDS011;11691;51.462;6.902;2022-12-18T06:26:17;21.93;;;11.03;;
23046;SDS011;11691;51.462;6.902;2022-12-18T06:28:43;19.43;;;10.47;;
23046;SDS011;11691;51.462;6.902;2022-12-18T06:31:09;17.73;;;9.57;;
23046;SDS011;11691;51.462;6.902;2022-12-18T06:33:35;23.00;;;10.13;;
23046;SDS011;11691;51.462;6.902;2022-12-18T06:36:02;22.10;;;10.30;;
23046;SDS011;11691;51.462;6.902;2022-12-18T06:38:31;20.37;;;10.33;;
23046;SDS011;11691;51.462;6.902;2022-12-18T06:40:57;21.07;;;10.63;;
23046;SDS011;11691;51.462;6.902;2022-12-18T06:43:23;19.10;;;10.17;;
23046;SDS011;11691;51.462;6.902;2022-12-18T06:45:49;20.93;;;10.50;;
23046;SDS011;11691;51.462;6.902;2022-12-18T06:48:18;18.47;;;9.50;;
23046;SDS011;11691;51.462;6.902;2022-12-18T06:50:45;21.00;;;10.53;;
23046;SDS011;11691;51.462;6.902;2022-12-18T06:53:11;23.93;;;10.43;;
23046;SDS011;11691;51.462;6.902;2022-12-18T06:55:37;21.13;;;10.20;;
23046;SDS011;11691;51.462;6.902;2022-12-18T06:58:03;17.07;;;9.47;;
23046;SDS011;11691;51.462;6.902;2022-12-18T07:00:29;21.23;;;10.23;;
23046;SDS011;11691;51.462;6.902;2022-12-18T07:02:55;19.07;;;8.37;;
23046;SDS011;11691;51.462;6.902;2022-12-18T07:05:21;16.33;;;7.77;;
23046;SDS011;11691;51.462;6.902;2022-12-18T07:07:47;19.33;;;8.20;;
23046;SDS011;11691;51.462;6.902;2022-12-18T07:10:13;17.53;;;8.10;;
23046;SDS011;11691;51.462;6.902;2022-12-18T07:12:39;14.77;;;7.23;;
23046;SDS011;11691;51.462;6.902;2022-12-18T07:15:06;13.30;;;7.20;;
23046;SDS011;11691;51.462;6.902;2022-12-18T07:17:32;14.20;;;7.37;;
23046;SDS011;11691;51.462;6.902;2022-12-18T07:19:58;14.77;;;7.30;;
23046;SDS011;11691;51.462;6.902;2022-12-18T07:22:25;14.60;;;7.30;;
23046;SDS011;11691;51.462;6.902;2022-12-18T07:24:51;15.13;;;7.80;;
23046;SDS011;11691;51.462;6.902;2022-12-18T07:27:17;12.37;;;7.03;;
23046;SDS011;11691;51.462;6.902;2022-12-18T07:29:43;13.57;;;7.30;;
23046;SDS011;11691;51.462;6.902;2022-12-18T07:32:09;12.43;;;7.17;;
23046;SDS011;11691;51.462;6.902;2022-12-18T07:34:35;16.73;;;7.23;;
23046;SDS011;11691;51.462;6.902;2022-12-18T07:37:01;15.07;;;7.40;;
23046;SDS011;11691;51.462;6.902;2022-12-18T07:39:27;14.43;;;7.60;;
23046;SDS011;11691;51.462;6.902;2022-12-18T07:41:53;15.30;;;7.73;;
23046;SDS011;11691;51.462;6.902;2022-12-18T07:44:38;17.20;;;7.73;;
23046;SDS011;11691;51.462;6.902;2022-12-18T07:47:04;15.47;;;7.73;;
23046;SDS011;11691;51.462;6.902;2022-12-18T07:49:30;14.63;;;7.37;;
23046;SDS011;11691;51.462;6.902;2022-12-18T07:51:56;16.93;;;8.13;;
23046;SDS011;11691;51.462;6.902;2022-12-18T07:54:23;15.33;;;7.83;;
23046;SDS011;11691;51.462;6.902;2022-12-18T07:56:49;19.67;;;8.30;;
23046;SDS011;11691;51.462;6.902;2022-12-18T07:59:15;16.63;;;8.03;;
23046;SDS011;11691;51.462;6.902;2022-12-18T08:01:41;16.43;;;8.73;;
23046;SDS011;11691;51.462;6.902;2022-12-18T08:04:07;15.90;;;8.13;;
23046;SDS011;11691;51.462;6.902;2022-12-18T08:06:33;12.90;;;7.77;;
23046;SDS011;11691;51.462;6.902;2022-12-18T08:08:59;18.27;;;9.63;;
23046;SDS011;11691;51.462;6.902;2022-12-18T08:11:26;20.03;;;10.07;;
23046;SDS011;11691;51.462;6.902;2022-12-18T08:13:53;15.10;;;9.30;;
23046;SDS011;11691;51.462;6.902;2022-12-18T08:16:19;16.37;;;8.60;;
23046;SDS011;11691;51.462;6.902;2022-12-18T08:18:45;15.17;;;8.43;;
23046;SDS011;11691;51.462;6.902;2022-12-18T08:21:12;16.50;;;8.20;;
23046;SDS011;11691;51.462;6.902;2022-12-18T08:23:38;16.23;;;7.57;;
23046;SDS011;11691;51.462;6.902;2022-12-18T08:26:05;13.17;;;7.20;;
23046;SDS011;11691;51.462;6.902;2022-12-18T08:28:31;10.90;;;6.47;;
23046;SDS011;11691;51.462;6.902;2022-12-18T08:30:58;12.13;;;6.43;;
23046;SDS011;11691;51.462;6.902;2022-12-18T08:33:24;13.10;;;6.37;;
23046;SDS011;11691;51.462;6.902;2022-12-18T08:35:51;13.73;;;6.97;;
23046;SDS011;11691;51.462;6.902;2022-12-18T08:38:17;13.93;;;6.70;;
23046;SDS011;11691;51.462;6.902;2022-12-18T08:40:43;14.27;;;7.00;;
23046;SDS011;11691;51.462;6.902;2022-12-18T08:43:09;16.87;;;8.47;;
23046;SDS011;11691;51.462;6.902;2022-12-18T08:45:54;14.47;;;7.80;;
23046;SDS011;11691;51.462;6.902;2022-12-18T08:48:20;13.53;;;7.33;;
23046;SDS011;11691;51.462;6.902;2022-12-18T08:51:04;15.57;;;8.27;;
23046;SDS011;11691;51.462;6.902;2022-12-18T08:53:30;17.27;;;8.53;;
23046;SDS011;11691;51.462;6.902;2022-12-18T08:55:56;17.13;;;7.80;;
23046;SDS011;11691;51.462;6.902;2022-12-18T08:58:22;16.77;;;8.80;;
23046;SDS011;11691;51.462;6.902;2022-12-18T09:00:48;16.37;;;8.83;;
23046;SDS011;11691;51.462;6.902;2022-12-18T09:03:17;14.03;;;7.63;;
23046;SDS011;11691;51.462;6.902;2022-12-18T09:05:45;13.87;;;8.50;;
23046;SDS011;11691;51.462;6.902;2022-12-18T09:08:12;17.80;;;8.90;;
23046;SDS011;11691;51.462;6.902;2022-12-18T09:10:41;17.10;;;8.03;;
23046;SDS011;11691;51.462;6.902;2022-12-18T09:13:09;17.53;;;9.17;;
23046;SDS011;11691;51.462;6.902;2022-12-18T09:15:39;15.13;;;8.43;;
23046;SDS011;11691;51.462;6.902;2022-12-18T09:18:05;17.47;;;9.17;;
23046;SDS011;11691;51.462;6.902;2022-12-18T09:20:32;15.67;;;8.30;;
23046;SDS011;11691;51.462;6.902;2022-12-18T09:22:58;12.57;;;7.20;;
23046;SDS011;11691;51.462;6.902;2022-12-18T09:25:24;10.83;;;5.70;;
23046;SDS011;11691;51.462;6.902;2022-12-18T09:27:50;11.77;;;4.37;;
23046;SDS011;11691;51.462;6.902;2022-12-18T09:30:16;8.63;;;4.53;;
23046;SDS011;11691;51.462;6.902;2022-12-18T09:32:42;8.17;;;4.00;;
23046;SDS011;11691;51.462;6.902;2022-12-18T09:35:08;6.57;;;2.70;;
23046;SDS011;11691;51.462;6.902;2022-12-18T09:37:34;5.73;;;3.03;;
23046;SDS011;11691;51.462;6.902;2022-12-18T09:40:00;6.87;;;3.17;;
23046;SDS011;11691;51.462;6.902;2022-12-18T09:42:26;5.40;;;2.93;;
23046;SDS011;11691;51.462;6.902;2022-12-18T09:44:53;6.47;;;3.33;;
23046;SDS011;11691;51.462;6.902;2022-12-18T09:47:27;4.00;;;2.10;;
23046;SDS011;11691;51.462;6.902;2022-12-18T09:49:56;4.10;;;2.40;;
23046;SDS011;11691;51.462;6.902;2022-12-18T09:52:25;3.43;;;2.23;;
23046;SDS011;11691;51.462;6.902;2022-12-18T09:55:09;6.23;;;2.93;;
23046;SDS011;11691;51.462;6.902;2022-12-18T09:57:56;5.23;;;2.67;;
23046;SDS011;11691;51.462;6.902;2022-12-18T10:00:24;4.47;;;2.37;;
23046;SDS011;11691;51.462;6.902;2022-12-18T10:02:56;4.37;;;2.13;;
23046;SDS011;11691;51.462;6.902;2022-12-18T10:10:57;4.93;;;2.60;;
23046;SDS011;11691;51.462;6.902;2022-12-18T10:13:45;4.27;;;2.53;;
23046;SDS011;11691;51.462;6.902;2022-12-18T10:16:22;4.50;;;2.87;;
23046;SDS011;11691;51.462;6.902;2022-12-18T10:26:34;8.50;;;4.23;;
23046;SDS011;11691;51.462;6.902;2022-12-18T10:29:00;9.43;;;4.23;;
23046;SDS011;11691;51.462;6.902;2022-12-18T10:31:27;5.50;;;3.37;;
23046;SDS011;11691;51.462;6.902;2022-12-18T10:33:53;7.97;;;3.77;;
23046;SDS011;11691;51.462;6.902;2022-12-18T10:36:20;7.10;;;3.50;;
23046;SDS011;11691;51.462;6.902;2022-12-18T10:38:46;7.27;;;3.77;;
23046;SDS011;11691;51.462;6.902;2022-12-18T10:43:45;7.47;;;3.77;;
23046;SDS011;11691;51.462;6.902;2022-12-18T10:46:13;7.13;;;3.17;;
23046;SDS011;11691;51.462;6.902;2022-12-18T10:48:51;6.43;;;3.30;;
23046;SDS011;11691;51.462;6.902;2022-12-18T10:51:24;6.10;;;3.53;;
23046;SDS011;11691;51.462;6.902;2022-12-18T10:54:03;6.97;;;3.37;;
23046;SDS011;11691;51.462;6.902;2022-12-18T10:56:30;8.27;;;3.40;;
23046;SDS011;11691;51.462;6.902;2022-12-18T10:59:05;9.93;;;3.53;;
23046;SDS011;11691;51.462;6.902;2022-12-18T11:04:21;6.60;;;3.83;;
23046;SDS011;11691;51.462;6.902;2022-12-18T11:06:58;6.97;;;3.60;;
23046;SDS011;11691;51.462;6.902;2022-12-18T11:09:33;7.30;;;3.20;;
23046;SDS011;11691;51.462;6.902;2022-12-18T11:12:00;6.50;;;3.27;;
23046;SDS011;11691;51.462;6.902;2022-12-18T11:14:29;9.03;;;4.10;;
23046;SDS011;11691;51.462;6.902;2022-12-18T11:16:56;6.80;;;4.30;;
23046;SDS011;11691;51.462;6.902;2022-12-18T11:19:31;8.67;;;4.00;;
23046;SDS011;11691;51.462;6.902;2022-12-18T11:21:58;7.70;;;3.97;;
23046;SDS011;11691;51.462;6.902;2022-12-18T11:24:31;8.80;;;3.50;;
23046;SDS011;11691;51.462;6.902;2022-12-18T11:27:03;6.77;;;3.50;;
23046;SDS011;11691;51.462;6.902;2022-12-18T11:29:37;5.90;;;3.47;;
23046;SDS011;11691;51.462;6.902;2022-12-18T11:34:55;7.00;;;3.27;;
23046;SDS011;11691;51.462;6.902;2022-12-18T11:37:22;6.13;;;3.60;;
23046;SDS011;11691;51.462;6.902;2022-12-18T11:39:50;5.10;;;3.50;;
23046;SDS011;11691;51.462;6.902;2022-12-18T11:42:24;8.83;;;4.00;;
23046;SDS011;11691;51.462;6.902;2022-12-18T11:44:52;8.40;;;3.37;;
23046;SDS011;11691;51.462;6.902;2022-12-18T11:50:28;6.13;;;3.53;;
23046;SDS011;11691;51.462;6.902;2022-12-18T11:52:55;7.03;;;4.07;;
23046;SDS011;11691;51.462;6.902;2022-12-18T11:55:26;5.80;;;3.57;;
23046;SDS011;11691;51.462;6.902;2022-12-18T12:00:25;5.87;;;3.63;;
23046;SDS011;11691;51.462;6.902;2022-12-18T12:10:46;8.17;;;4.13;;
23046;SDS011;11691;51.462;6.902;2022-12-18T12:28:57;32.60;;;14.60;;
23046;SDS011;11691;51.462;6.902;2022-12-18T12:39:30;13.40;;;6.43;;
23046;SDS011;11691;51.462;6.902;2022-12-18T12:41:57;11.37;;;6.87;;
23046;SDS011;11691;51.462;6.902;2022-12-18T12:44:58;7.70;;;4.53;;
23046;SDS011;11691;51.462;6.902;2022-12-18T12:47:47;7.40;;;4.80;;
23046;SDS011;11691;51.462;6.902;2022-12-18T12:50:16;7.50;;;4.23;;
23046;SDS011;11691;51.462;6.902;2022-12-18T12:52:45;9.43;;;4.33;;
23046;SDS011;11691;51.462;6.902;2022-12-18T12:55:19;9.50;;;4.97;;
23046;SDS011;11691;51.462;6.902;2022-12-18T12:58:02;8.60;;;5.30;;
23046;SDS011;11691;51.462;6.902;2022-12-18T13:00:30;8.40;;;4.73;;
23046;SDS011;11691;51.462;6.902;2022-12-18T13:05:31;8.97;;;5.77;;
23046;SDS011;11691;51.462;6.902;2022-12-18T13:08:12;8.70;;;5.30;;
23046;SDS011;11691;51.462;6.902;2022-12-18T13:10:47;11.73;;;5.57;;
23046;SDS011;11691;51.462;6.902;2022-12-18T13:13:13;10.87;;;5.40;;
23046;SDS011;11691;51.462;6.902;2022-12-18T13:15:42;10.50;;;6.00;;
23046;SDS011;11691;51.462;6.902;2022-12-18T13:18:28;11.73;;;6.07;;
23046;SDS011;11691;51.462;6.902;2022-12-18T13:28:16;9.57;;;5.87;;
23046;SDS011;11691;51.462;6.902;2022-12-18T13:31:03;10.40;;;6.40;;
23046;SDS011;11691;51.462;6.902;2022-12-18T13:36:15;12.13;;;6.07;;
23046;SDS011;11691;51.462;6.902;2022-12-18T13:38:42;12.13;;;6.47;;
23046;SDS011;11691;51.462;6.902;2022-12-18T13:43:44;14.23;;;5.90;;
23046;SDS011;11691;51.462;6.902;2022-12-18T13:46:23;14.53;;;7.13;;
23046;SDS011;11691;51.462;6.902;2022-12-18T13:51:27;13.13;;;6.53;;
23046;SDS011;11691;51.462;6.902;2022-12-18T13:53:55;13.87;;;6.27;;
23046;SDS011;11691;51.462;6.902;2022-12-18T13:56:23;13.67;;;6.80;;
23046;SDS011;11691;51.462;6.902;2022-12-18T14:01:31;12.60;;;6.67;;
23046;SDS011;11691;51.462;6.902;2022-12-18T14:06:50;13.10;;;6.93;;
23046;SDS011;11691;51.462;6.902;2022-12-18T14:09:23;13.37;;;7.00;;
23046;SDS011;11691;51.462;6.902;2022-12-18T14:11:51;14.33;;;8.20;;
23046;SDS011;11691;51.462;6.902;2022-12-18T14:14:38;17.97;;;8.00;;
23046;SDS011;11691;51.462;6.902;2022-12-18T14:17:10;12.20;;;7.10;;
23046;SDS011;11691;51.462;6.902;2022-12-18T14:19:36;17.57;;;7.50;;
23046;SDS011;11691;51.462;6.902;2022-12-18T14:22:03;13.20;;;7.40;;
23046;SDS011;11691;51.462;6.902;2022-12-18T14:24:29;13.33;;;7.57;;
23046;SDS011;11691;51.462;6.902;2022-12-18T14:26:56;15.80;;;8.43;;
23046;SDS011;11691;51.462;6.902;2022-12-18T14:29:44;13.77;;;7.47;;
23046;SDS011;11691;51.462;6.902;2022-12-18T14:32:11;13.07;;;7.43;;
23046;SDS011;11691;51.462;6.902;2022-12-18T14:34:42;12.40;;;6.83;;
23046;SDS011;11691;51.462;6.902;2022-12-18T14:37:11;17.30;;;8.43;;
23046;SDS011;11691;51.462;6.902;2022-12-18T14:39:37;17.03;;;8.30;;
23046;SDS011;11691;51.462;6.902;2022-12-18T14:42:03;11.47;;;6.90;;
23046;SDS011;11691;51.462;6.902;2022-12-18T14:44:29;12.53;;;7.53;;
23046;SDS011;11691;51.462;6.902;2022-12-18T14:46:56;13.10;;;7.40;;
23046;SDS011;11691;51.462;6.902;2022-12-18T14:49:24;14.17;;;6.97;;
23046;SDS011;11691;51.462;6.902;2022-12-18T14:51:54;12.53;;;7.03;;
23046;SDS011;11691;51.462;6.902;2022-12-18T14:54:22;13.87;;;7.73;;
23046;SDS011;11691;51.462;6.902;2022-12-18T14:56:49;14.40;;;7.87;;
23046;SDS011;11691;51.462;6.902;2022-12-18T14:59:27;15.83;;;8.60;;
23046;SDS011;11691;51.462;6.902;2022-12-18T15:04:24;14.77;;;9.20;;
23046;SDS011;11691;51.462;6.902;2022-12-18T15:12:31;15.90;;;8.87;;
23046;SDS011;11691;51.462;6.902;2022-12-18T15:14:59;14.10;;;8.47;;
23046;SDS011;11691;51.462;6.902;2022-12-18T15:17:25;15.17;;;8.47;;
23046;SDS011;11691;51.462;6.902;2022-12-18T15:19:53;15.13;;;8.10;;
23046;SDS011;11691;51.462;6.902;2022-12-18T15:22:25;15.47;;;8.37;;
23046;SDS011;11691;51.462;6.902;2022-12-18T15:24:56;14.53;;;7.87;;
23046;SDS011;11691;51.462;6.902;2022-12-18T15:27:27;16.70;;;9.13;;
23046;SDS011;11691;51.462;6.902;2022-12-18T15:30:00;14.87;;;9.10;;
23046;SDS011;11691;51.462;6.902;2022-12-18T15:32:26;13.53;;;7.60;;
23046;SDS011;11691;51.462;6.902;2022-12-18T15:35:02;16.70;;;8.50;;
23046;SDS011;11691;51.462;6.902;2022-12-18T15:37:28;19.57;;;9.10;;
23046;SDS011;11691;51.462;6.902;2022-12-18T15:39:54;16.53;;;7.77;;
23046;SDS011;11691;51.462;6.902;2022-12-18T15:42:21;15.73;;;8.40;;
23046;SDS011;11691;51.462;6.902;2022-12-18T15:45:05;16.80;;;8.97;;
23046;SDS011;11691;51.462;6.902;2022-12-18T15:47:33;14.93;;;8.63;;
23046;SDS011;11691;51.462;6.902;2022-12-18T15:49:59;14.97;;;8.80;;
23046;SDS011;11691;51.462;6.902;2022-12-18T15:52:25;18.07;;;9.30;;
23046;SDS011;11691;51.462;6.902;2022-12-18T15:54:51;26.17;;;11.63;;
23046;SDS011;11691;51.462;6.902;2022-12-18T15:57:36;16.60;;;9.57;;
23046;SDS011;11691;51.462;6.902;2022-12-18T16:00:02;26.67;;;13.23;;
23046;SDS011;11691;51.462;6.902;2022-12-18T16:02:28;27.60;;;13.37;;
23046;SDS011;11691;51.462;6.902;2022-12-18T16:04:54;24.83;;;12.60;;
23046;SDS011;11691;51.462;6.902;2022-12-18T16:07:20;21.00;;;11.97;;
23046;SDS011;11691;51.462;6.902;2022-12-18T16:09:46;20.53;;;11.17;;
23046;SDS011;11691;51.462;6.902;2022-12-18T16:12:17;18.23;;;10.60;;
23046;SDS011;11691;51.462;6.902;2022-12-18T16:14:43;20.03;;;11.10;;
23046;SDS011;11691;51.462;6.902;2022-12-18T16:17:10;20.73;;;11.23;;
23046;SDS011;11691;51.462;6.902;2022-12-18T16:19:37;19.67;;;10.70;;
23046;SDS011;11691;51.462;6.902;2022-12-18T16:22:03;19.57;;;9.80;;
23046;SDS011;11691;51.462;6.902;2022-12-18T16:24:31;17.50;;;9.90;;
23046;SDS011;11691;51.462;6.902;2022-12-18T16:26:58;19.63;;;10.90;;
23046;SDS011;11691;51.462;6.902;2022-12-18T16:29:25;19.97;;;10.83;;
23046;SDS011;11691;51.462;6.902;2022-12-18T16:31:52;19.93;;;11.20;;
23046;SDS011;11691;51.462;6.902;2022-12-18T16:34:23;21.20;;;10.97;;
23046;SDS011;11691;51.462;6.902;2022-12-18T16:36:53;21.77;;;10.87;;
23046;SDS011;11691;51.462;6.902;2022-12-18T16:39:20;22.93;;;11.37;;